Time;durP1;ratioP1;P1;durP2;ratioP2;P2;SDS_P1;SDS_P2;PMS_P1;PMS_P2;Temp;Humidity;BMP_temperature;BMP_pressure;BME280_temperature;BME280_humidity;BME280_pressure;Samples;Min_cycle;Max_cycle;Signal;HPM_P1;HPM_P2
2022/04/16 00:01:08;;;;;;;18.88;12.32;;;;;;;11.16;53.94;99346.38;5113304;28;20058;-71
2022/04/16 00:03:34;;;;;;;21.40;13.57;;;;;;;11.22;53.75;99350.59;5113162;28;20043;-72
2022/04/16 00:06:00;;;;;;;20.58;13.10;;;;;;;11.14;54.09;99348.72;5112261;28;20028;-72
2022/04/16 00:08:28;;;;;;;20.05;12.00;;;;;;;11.08;54.13;99357.31;5113071;28;20396;-71
2022/04/16 00:10:54;;;;;;;19.48;12.07;;;;;;;11.11;54.02;99360.59;5112593;28;20102;-72
2022/04/16 00:13:21;;;;;;;21.60;12.32;;;;;;;10.86;55.39;99366.03;5094530;28;20019;-71
2022/04/16 00:15:49;;;;;;;16.73;12.18;;;;;;;10.29;57.11;99368.13;5113003;28;20023;-71
2022/04/16 00:18:16;;;;;;;17.50;12.05;;;;;;;10.06;58.38;99368.38;5113024;28;20039;-71
2022/04/16 00:20:42;;;;;;;21.50;11.50;;;;;;;9.88;58.79;99368.41;5112141;28;20031;-71
2022/04/16 00:23:08;;;;;;;16.40;12.07;;;;;;;9.84;59.40;99367.47;5094132;28;20019;-72
2022/04/16 00:25:34;;;;;;;21.58;12.73;;;;;;;9.65;59.91;99384.59;5112645;28;20031;-71
2022/04/16 00:28:04;;;;;;;18.02;12.25;;;;;;;9.86;59.02;99375.53;5094451;28;20015;-72
2022/04/16 00:30:37;;;;;;;18.27;11.02;;;;;;;9.55;59.92;99371.78;5094484;28;20019;-71
2022/04/16 00:33:12;;;;;;;18.52;10.15;;;;;;;9.58;59.79;99376.72;5094515;28;20115;-71
2022/04/16 00:35:39;;;;;;;13.57;8.85;;;;;;;9.66;58.99;99372.25;5093695;28;20523;-72
2022/04/16 00:38:05;;;;;;;12.13;8.90;;;;;;;9.70;58.56;99373.22;5111619;28;20023;-72
2022/04/16 00:40:31;;;;;;;15.40;10.10;;;;;;;9.85;57.89;99371.88;5094121;28;20035;-72
2022/04/16 00:42:58;;;;;;;13.38;9.10;;;;;;;9.97;57.93;99360.03;5112465;28;20504;-72
2022/04/16 00:45:25;;;;;;;20.48;8.77;;;;;;;9.74;58.29;99368.63;5112308;28;20512;-71
2022/04/16 00:47:51;;;;;;;14.15;7.70;;;;;;;9.64;58.54;99369.00;5112461;28;20468;-72
2022/04/16 00:50:16;;;;;;;15.98;8.27;;;;;;;9.62;59.24;99372.09;5094116;28;20061;-72
2022/04/16 00:52:44;;;;;;;13.00;8.32;;;;;;;9.71;59.08;99374.06;5093698;28;20024;-72
2022/04/16 00:55:10;;;;;;;12.93;8.32;;;;;;;9.93;58.07;99373.84;5111888;28;20020;-72
2022/04/16 00:57:39;;;;;;;12.05;8.20;;;;;;;10.11;57.93;99369.03;5111959;28;20048;-72
2022/04/16 01:00:06;;;;;;;10.63;8.32;;;;;;;10.07;57.78;99368.03;5111669;28;20070;-72
2022/04/16 01:02:37;;;;;;;13.18;8.60;;;;;;;10.23;57.58;99371.09;5111323;28;20057;-72
2022/04/16 01:05:04;;;;;;;15.13;8.75;;;;;;;10.34;56.71;99365.13;5104200;28;20028;-72
2022/04/16 01:07:30;;;;;;;16.95;9.30;;;;;;;10.27;56.99;99370.44;5111044;28;20027;-72
2022/04/16 01:09:56;;;;;;;16.92;9.50;;;;;;;10.29;56.65;99359.75;5093577;28;20016;-72
2022/04/16 01:12:22;;;;;;;20.60;8.98;;;;;;;10.40;56.18;99372.19;5111952;28;20031;-72
2022/04/16 01:14:50;;;;;;;10.48;8.13;;;;;;;10.52;56.06;99372.31;5111770;28;20030;-72
2022/04/16 01:17:16;;;;;;;12.88;8.73;;;;;;;10.75;55.57;99360.84;5093194;28;20084;-72
2022/04/16 01:19:42;;;;;;;19.80;10.20;;;;;;;10.99;54.79;99372.53;5111637;28;20051;-72
2022/04/16 01:22:14;;;;;;;14.27;8.93;;;;;;;11.23;53.74;99363.47;5093246;28;20032;-72
2022/04/16 01:24:43;;;;;;;13.82;8.63;;;;;;;11.26;53.60;99362.78;5111151;28;20577;-71
2022/04/16 01:27:10;;;;;;;14.48;8.85;;;;;;;11.16;53.99;99360.38;5110609;28;20027;-72
2022/04/16 01:29:36;;;;;;;16.65;9.48;;;;;;;11.41;53.21;99357.69;5085528;28;20031;-72
2022/04/16 01:32:02;;;;;;;16.15;8.25;;;;;;;11.47;54.14;99354.34;5111036;28;20020;-72
2022/04/16 01:34:29;;;;;;;16.20;8.20;;;;;;;11.54;53.17;99356.59;5111105;28;20038;-71
2022/04/16 01:36:54;;;;;;;11.65;7.72;;;;;;;11.68;52.42;99355.47;5111327;28;20027;-72
2022/04/16 01:39:20;;;;;;;12.48;8.88;;;;;;;11.78;52.83;99353.06;5111502;28;20038;-72
2022/04/16 01:41:46;;;;;;;17.10;9.35;;;;;;;11.84;53.02;99348.06;5111260;28;20031;-72
2022/04/16 01:44:12;;;;;;;16.13;10.43;;;;;;;11.85;52.41;99346.88;5092697;28;20035;-73
2022/04/16 01:46:37;;;;;;;19.70;10.20;;;;;;;11.59;52.94;99348.00;5111432;28;20019;-72
2022/04/16 01:49:03;;;;;;;18.13;9.82;;;;;;;11.61;53.52;99347.63;5092708;28;20024;-72
2022/04/16 01:51:28;;;;;;;15.43;10.52;;;;;;;11.70;53.25;99341.91;5093091;28;20027;-72
2022/04/16 01:53:54;;;;;;;16.90;9.35;;;;;;;11.65;53.39;99340.19;5092875;28;20023;-73
2022/04/16 01:56:19;;;;;;;16.33;10.05;;;;;;;11.57;52.92;99333.47;5110962;28;20032;-72
2022/04/16 01:58:45;;;;;;;13.32;9.27;;;;;;;11.62;52.53;99336.09;5111011;28;20043;-72
2022/04/16 02:01:10;;;;;;;14.05;9.35;;;;;;;11.57;52.50;99341.88;5107757;28;20023;-73
2022/04/16 02:03:37;;;;;;;13.77;9.55;;;;;;;11.51;52.37;99337.69;5110778;28;20027;-72
2022/04/16 02:06:06;;;;;;;18.02;10.27;;;;;;;11.62;51.75;99336.09;5092978;28;20401;-72
2022/04/16 02:08:31;;;;;;;19.25;10.07;;;;;;;11.77;51.58;99337.41;5091735;28;20027;-72
2022/04/16 02:10:57;;;;;;;13.95;9.25;;;;;;;11.69;52.04;99343.09;5110791;28;20031;-72
2022/04/16 02:13:23;;;;;;;17.42;10.00;;;;;;;11.52;52.35;99342.13;5110502;28;20103;-71
2022/04/16 02:15:48;;;;;;;17.05;10.15;;;;;;;11.37;51.95;99349.16;5092923;28;20020;-72
2022/04/16 02:18:14;;;;;;;15.82;10.10;;;;;;;11.36;52.39;99333.53;5110993;28;20111;-72
2022/04/16 02:20:43;;;;;;;14.32;9.95;;;;;;;11.58;52.17;99342.72;5110730;28;20027;-72
2022/04/16 02:23:10;;;;;;;19.20;10.47;;;;;;;11.63;51.85;99337.72;5110567;28;20027;-72
2022/04/16 02:25:36;;;;;;;16.48;10.35;;;;;;;11.29;53.02;99336.88;5111105;28;20023;-72
2022/04/16 02:28:01;;;;;;;14.93;10.57;;;;;;;11.40;52.70;99328.06;5092216;28;20117;-72
2022/04/16 02:30:30;;;;;;;13.40;8.77;;;;;;;11.56;52.04;99326.25;5091844;28;20067;-72
2022/04/16 02:32:56;;;;;;;18.77;9.20;;;;;;;11.72;52.51;99328.41;5109590;28;20023;-72
2022/04/16 02:35:23;;;;;;;17.70;9.60;;;;;;;11.60;52.36;99324.41;5110879;28;20034;-72
2022/04/16 02:37:49;;;;;;;16.05;10.32;;;;;;;10.92;53.47;99317.09;5109216;28;20023;-72
2022/04/16 02:40:15;;;;;;;14.23;10.13;;;;;;;10.63;55.00;99316.00;5111621;28;20049;-71
2022/04/16 02:42:42;;;;;;;17.25;10.30;;;;;;;10.89;55.09;99306.59;5113924;28;20481;-72
2022/04/16 02:47:55;;;;;;;26.23;12.38;;;;;;;10.32;55.33;99308.75;5114702;28;20038;-72
2022/04/16 02:50:25;;;;;;;14.52;11.07;;;;;;;10.60;55.36;99311.06;5096202;28;20027;-72
2022/04/16 02:52:54;;;;;;;19.33;12.38;;;;;;;10.53;54.84;99306.00;5099351;28;20039;-72
2022/04/16 02:55:21;;;;;;;16.40;10.48;;;;;;;10.77;54.17;99308.16;5096018;28;20039;-72
2022/04/16 02:57:46;;;;;;;18.70;10.50;;;;;;;10.70;54.05;99302.28;5114340;28;20055;-71
2022/04/16 03:00:13;;;;;;;17.08;10.23;;;;;;;10.59;54.73;99304.69;5114580;28;20032;-72
2022/04/16 03:02:39;;;;;;;15.27;10.35;;;;;;;10.41;54.86;99292.78;5095276;28;20028;-72
2022/04/16 03:05:06;;;;;;;17.30;10.95;;;;;;;10.53;54.60;99304.06;5114319;28;20019;-72
2022/04/16 03:07:33;;;;;;;15.40;10.88;;;;;;;10.42;54.89;99300.00;5092636;28;20413;-72
2022/04/16 03:09:59;;;;;;;13.75;10.45;;;;;;;10.74;54.45;99300.47;5112523;28;20031;-72
2022/04/16 03:12:24;;;;;;;15.95;11.00;;;;;;;10.70;54.45;99299.50;5095079;28;20035;-71
2022/04/16 03:17:35;;;;;;;17.63;10.55;;;;;;;10.57;54.78;99304.19;5114287;28;20512;-72
2022/04/16 03:20:07;;;;;;;14.52;11.63;;;;;;;10.50;55.90;99310.34;5113795;28;20111;-71
2022/04/16 03:22:34;;;;;;;14.95;11.32;;;;;;;10.71;55.66;99300.31;5111387;28;20024;-72
2022/04/16 03:25:07;;;;;;;12.77;10.20;;;;;;;10.59;55.23;99298.25;5113955;28;20024;-72
2022/04/16 03:27:33;;;;;;;20.48;11.00;;;;;;;10.59;55.10;99307.47;5095808;28;20054;-71
2022/04/16 03:29:59;;;;;;;17.80;10.13;;;;;;;10.71;55.29;99309.50;5113553;28;20474;-71
2022/04/16 03:32:24;;;;;;;22.73;14.75;;;;;;;10.66;55.14;99315.31;5112735;28;20112;-73
2022/04/16 03:34:50;;;;;;;15.75;10.05;;;;;;;10.72;55.12;99313.16;5113136;28;20038;-71
2022/04/16 03:37:15;;;;;;;16.05;10.90;;;;;;;10.23;56.21;99323.56;5111229;28;20111;-72
2022/04/16 03:39:41;;;;;;;15.40;9.73;;;;;;;9.26;58.79;99315.50;5113602;28;20019;-71
2022/04/16 03:42:06;;;;;;;20.75;10.30;;;;;;;8.57;61.56;99331.88;5095048;28;20062;-71
2022/04/16 03:44:32;;;;;;;16.60;10.13;;;;;;;8.64;61.56;99330.56;5095593;28;20105;-71
2022/04/16 03:46:58;;;;;;;18.58;11.05;;;;;;;8.56;61.56;99326.63;5113677;28;20031;-72
2022/04/16 03:49:23;;;;;;;21.25;11.45;;;;;;;8.52;61.75;99326.44;5112767;28;20591;-71
2022/04/16 03:51:49;;;;;;;16.08;10.70;;;;;;;8.35;62.10;99329.97;5092963;28;20121;-71
2022/04/16 04:00:01;;;;;;;23.30;10.32;;;;;;;8.62;61.72;99341.22;5112710;28;20042;-71
2022/04/16 04:02:30;;;;;;;15.13;9.82;;;;;;;8.13;63.52;99351.22;5111885;28;20027;-72
2022/04/16 04:04:57;;;;;;;18.50;13.07;;;;;;;8.27;63.48;99361.44;5094656;28;20043;-71
2022/04/16 04:07:23;;;;;;;19.95;13.32;;;;;;;8.27;63.28;99359.47;5113108;28;20039;-71
2022/04/16 04:09:49;;;;;;;20.25;12.57;;;;;;;8.34;63.69;99369.34;5093973;28;20023;-68
2022/04/16 04:12:15;;;;;;;19.15;11.70;;;;;;;8.26;64.35;99360.63;5113134;28;20042;-68
2022/04/16 04:14:46;;;;;;;53.85;13.73;;;;;;;8.28;64.68;99363.91;5094627;28;20027;-70
2022/04/16 04:17:12;;;;;;;23.83;12.25;;;;;;;8.13;64.80;99358.75;5113287;28;20485;-70
2022/04/16 04:19:46;;;;;;;20.50;9.63;;;;;;;8.26;64.36;99357.81;5094364;28;20455;-69
2022/04/16 04:22:14;;;;;;;13.18;8.77;;;;;;;8.21;64.78;99365.50;5112083;28;20416;-70
2022/04/16 04:24:41;;;;;;;15.30;8.90;;;;;;;8.25;65.35;99366.50;5112952;28;20028;-70
2022/04/16 04:27:08;;;;;;;16.13;10.32;;;;;;;8.33;65.34;99367.69;5094269;28;20027;-75
2022/04/16 04:29:35;;;;;;;19.58;8.95;;;;;;;8.41;64.63;99369.66;5094429;28;20027;-70
2022/04/16 04:32:01;;;;;;;16.77;8.57;;;;;;;8.45;65.09;99365.13;5112451;28;20119;-70
2022/04/16 04:34:26;;;;;;;15.93;9.82;;;;;;;8.64;64.89;99372.41;5112696;28;20027;-69
2022/04/16 04:36:52;;;;;;;13.05;9.85;;;;;;;8.72;64.51;99377.19;5112186;28;20036;-70
2022/04/16 04:39:18;;;;;;;18.27;10.68;;;;;;;8.63;64.88;99368.81;5112469;28;20027;-70
2022/04/16 04:41:44;;;;;;;23.83;10.20;;;;;;;8.56;64.89;99366.47;5112114;28;20485;-71
2022/04/16 04:44:11;;;;;;;82.72;16.65;;;;;;;8.60;65.11;99374.19;5111952;28;21455;-70
2022/04/16 04:46:40;;;;;;;34.03;12.05;;;;;;;8.83;63.43;99367.34;5093236;28;20108;-72
2022/04/16 04:49:13;;;;;;;14.13;7.83;;;;;;;9.16;62.34;99371.66;5089490;28;20051;-73
2022/04/16 04:51:39;;;;;;;15.63;8.68;;;;;;;9.26;61.21;99376.06;5100213;28;20085;-69
2022/04/16 04:54:06;;;;;;;16.02;7.78;;;;;;;9.53;61.65;99374.06;5104764;28;20024;-70
2022/04/16 04:56:32;;;;;;;14.52;8.05;;;;;;;9.62;61.50;99374.09;5101448;28;20036;-71
2022/04/16 04:58:57;;;;;;;15.77;8.15;;;;;;;9.81;60.91;99382.91;5097347;28;20482;-70
2022/04/16 05:01:23;;;;;;;21.42;9.35;;;;;;;10.02;60.75;99378.59;5078517;28;20050;-70
2022/04/16 05:03:49;;;;;;;31.67;9.65;;;;;;;10.21;59.31;99373.41;5107553;28;20036;-70
2022/04/16 05:06:14;;;;;;;24.52;11.13;;;;;;;10.19;59.55;99372.94;5089971;28;20031;-70
2022/04/16 05:08:40;;;;;;;17.77;9.15;;;;;;;10.27;59.15;99379.66;5088684;28;20080;-70
2022/04/16 05:11:05;;;;;;;19.13;11.43;;;;;;;10.42;59.67;99389.47;5106044;28;20062;-70
2022/04/16 05:13:31;;;;;;;16.08;10.32;;;;;;;10.71;59.31;99384.25;5109316;28;20043;-70
2022/04/16 05:15:56;;;;;;;14.02;9.10;;;;;;;10.81;59.12;99393.06;5109293;28;20475;-71
2022/04/16 05:18:22;;;;;;;15.98;9.88;;;;;;;10.93;58.00;99383.94;5107824;28;20027;-70
2022/04/16 05:20:47;;;;;;;15.45;9.82;;;;;;;10.91;58.40;99386.22;5090452;28;20554;-71
2022/04/16 05:23:13;;;;;;;16.13;8.73;;;;;;;11.26;57.77;99379.56;5071332;28;20057;-71
2022/04/16 05:25:38;;;;;;;27.05;8.80;;;;;;;11.27;57.64;99369.19;5108967;28;20485;-69
2022/04/16 05:28:04;;;;;;;19.10;9.35;;;;;;;11.52;56.68;99370.94;5109185;28;20012;-73
2022/04/16 05:30:34;;;;;;;15.20;8.40;;;;;;;11.73;56.24;99369.28;5090670;28;20515;-72
2022/04/16 05:33:05;;;;;;;;;;;;;;;12.10;55.79;99377.81;5109377;28;20394;-71
2022/04/16 05:35:31;;;;;;;20.75;9.45;;;;;;;12.25;55.57;99375.47;5090570;28;19941;-69
2022/04/16 05:37:59;;;;;;;19.20;9.30;;;;;;;12.55;55.04;99378.06;5090506;28;20101;-70
2022/04/16 05:40:25;;;;;;;13.02;8.63;;;;;;;12.41;54.47;99376.41;5108542;28;20539;-70
2022/04/16 05:42:50;;;;;;;16.13;9.15;;;;;;;12.53;54.20;99375.63;5108916;28;20140;-69
2022/04/16 05:45:16;;;;;;;17.08;9.35;;;;;;;12.60;53.99;99372.22;5108347;28;20035;-69
2022/04/16 05:47:43;;;;;;;28.45;11.73;;;;;;;12.40;53.98;99374.78;5109073;28;20035;-71
2022/04/16 05:50:09;;;;;;;20.13;9.43;;;;;;;12.28;54.07;99364.38;5111466;28;20474;-71
2022/04/16 05:52:36;;;;;;;20.15;9.52;;;;;;;12.55;54.19;99373.28;5111502;28;20011;-70
2022/04/16 05:55:03;;;;;;;25.80;12.05;;;;;;;12.91;53.27;99362.34;5111366;28;20044;-71
2022/04/16 05:57:30;;;;;;;269.50;23.23;;;;;;;13.28;52.54;99359.47;5109509;28;20047;-71
2022/04/16 05:59:56;;;;;;;69.93;11.57;;;;;;;13.40;52.43;99357.81;5090988;28;20043;-71
2022/04/16 06:02:22;;;;;;;30.75;12.50;;;;;;;13.69;51.83;99342.56;5090963;28;20133;-71
2022/04/16 06:04:47;;;;;;;23.13;13.15;;;;;;;13.93;51.65;99356.88;5091233;28;20114;-71
2022/04/16 06:07:13;;;;;;;23.48;11.05;;;;;;;14.13;50.14;99350.19;5109351;28;20027;-71
2022/04/16 06:09:38;;;;;;;17.48;9.02;;;;;;;14.28;49.50;99345.72;5109451;28;20030;-71
2022/04/16 06:12:05;;;;;;;11.80;8.65;;;;;;;14.52;48.94;99343.88;5110404;28;20024;-71
2022/04/16 06:14:31;;;;;;;14.77;9.07;;;;;;;14.79;48.76;99346.16;5112537;28;20023;-71
2022/04/16 06:16:57;;;;;;;34.08;8.27;;;;;;;14.85;48.66;99339.06;5115044;28;20031;-71
2022/04/16 06:19:23;;;;;;;15.13;8.65;;;;;;;15.05;48.87;99336.25;5096689;28;20117;-71
2022/04/16 06:21:49;;;;;;;34.67;10.25;;;;;;;15.21;48.17;99328.59;5114581;28;20055;-69
2022/04/16 06:24:15;;;;;;;16.17;9.73;;;;;;;15.15;47.68;99324.41;5097228;28;20070;-69
2022/04/16 06:26:42;;;;;;;1272.95;120.47;;;;;;;15.42;48.07;99328.19;5115854;28;20054;-70
2022/04/16 06:29:08;;;;;;;43.22;9.05;;;;;;;14.96;47.83;99325.22;5114961;28;20032;-70
2022/04/16 06:31:33;;;;;;;11.90;8.13;;;;;;;15.07;48.43;99322.63;5114895;28;20039;-70
2022/04/16 06:33:59;;;;;;;248.85;23.05;;;;;;;15.08;48.48;99338.34;5115008;28;20489;-71
2022/04/16 06:36:24;;;;;;;121.72;13.75;;;;;;;15.18;48.06;99328.50;5114916;28;20042;-71
2022/04/16 06:38:50;;;;;;;17.05;9.23;;;;;;;15.52;46.82;99323.16;5113494;28;20027;-72
2022/04/16 06:41:15;;;;;;;18.10;8.27;;;;;;;15.55;46.77;99313.94;5113079;28;20031;-71
2022/04/16 06:43:41;;;;;;;14.93;8.02;;;;;;;15.72;46.52;99310.66;5112674;28;20509;-74
2022/04/16 06:46:06;;;;;;;17.85;8.40;;;;;;;15.90;46.98;99312.19;5112753;28;20097;-74
2022/04/16 06:48:32;;;;;;;13.10;8.23;;;;;;;16.12;47.10;99307.78;5094389;28;20042;-74
2022/04/16 06:50:57;;;;;;;38.42;9.38;;;;;;;16.30;46.55;99305.25;5094551;28;20511;-72
2022/04/16 06:53:26;;;;;;;25.58;8.90;;;;;;;16.45;46.61;99297.00;5114226;28;20055;-72
2022/04/16 06:55:51;;;;;;;15.70;10.25;;;;;;;16.61;46.53;99280.69;5113671;28;20533;-73
2022/04/16 06:58:17;;;;;;;25.80;11.85;;;;;;;16.75;46.22;99291.41;5107067;28;20130;-73
2022/04/16 07:00:42;;;;;;;27.70;12.32;;;;;;;16.84;46.39;99285.47;5096961;28;20390;-73
2022/04/16 07:03:08;;;;;;;21.38;12.68;;;;;;;16.93;46.26;99288.81;5114485;28;20031;-73
2022/04/16 07:05:34;;;;;;;28.40;13.18;;;;;;;17.10;45.78;99270.50;5112393;28;20446;-73
2022/04/16 07:07:59;;;;;;;37.47;15.10;;;;;;;17.36;45.71;99271.63;5092329;28;20088;-73
2022/04/16 07:10:25;;;;;;;22.58;13.40;;;;;;;17.40;43.92;99266.00;5108273;28;20485;-73
2022/04/16 07:12:50;;;;;;;51.90;11.07;;;;;;;17.42;43.93;99262.78;5105598;28;20055;-76
2022/04/16 07:15:16;;;;;;;13.57;8.05;;;;;;;17.37;43.78;99261.94;5105191;28;20027;-75
2022/04/16 07:17:41;;;;;;;22.30;12.65;;;;;;;17.49;44.22;99254.38;5113796;28;20024;-73
2022/04/16 07:20:08;;;;;;;10.88;7.30;;;;;;;17.48;43.92;99253.56;5111529;28;20490;-74
2022/04/16 07:22:35;;;;;;;18.17;6.97;;;;;;;17.53;44.06;99258.88;5107660;28;20027;-73
2022/04/16 07:25:00;;;;;;;19.83;6.20;;;;;;;17.53;43.82;99250.41;5095629;28;20413;-73
2022/04/16 07:27:26;;;;;;;11.20;6.75;;;;;;;17.62;44.16;99249.28;5112554;28;20047;-73
2022/04/16 07:29:58;;;;;;;8.70;6.18;;;;;;;17.61;43.27;99233.50;5101652;28;20452;-73
2022/04/16 07:32:24;;;;;;;16.92;5.93;;;;;;;17.77;42.38;99238.91;5074926;28;20051;-74
2022/04/16 07:34:50;;;;;;;5.63;4.85;;;;;;;17.89;40.81;99240.63;5109753;28;20023;-76
2022/04/16 07:37:15;;;;;;;8.85;5.28;;;;;;;18.03;40.41;99240.78;5113607;28;20030;-75
2022/04/16 07:39:41;;;;;;;17.88;7.03;;;;;;;17.99;41.60;99244.75;5113706;28;20023;-75
2022/04/16 07:42:06;;;;;;;9.77;5.40;;;;;;;17.98;41.65;99237.47;5110223;28;20035;-74
2022/04/16 07:44:32;;;;;;;8.82;5.68;;;;;;;17.92;41.60;99242.69;5075668;28;20505;-71
2022/04/16 07:46:57;;;;;;;11.55;5.57;;;;;;;18.10;41.50;99240.03;5103853;28;20023;-73
2022/04/16 07:49:23;;;;;;;8.45;5.68;;;;;;;18.36;41.15;99241.84;5101006;28;20436;-73
2022/04/16 07:51:48;;;;;;;6.68;5.30;;;;;;;18.25;40.28;99240.97;5092988;28;20024;-73
2022/04/16 07:54:14;;;;;;;17.55;7.60;;;;;;;18.46;40.65;99233.78;5110572;28;20065;-71
2022/04/16 07:56:39;;;;;;;7.25;4.82;;;;;;;18.67;38.99;99235.97;5110932;28;20032;-76
2022/04/16 07:59:05;;;;;;;8.45;4.65;;;;;;;18.90;39.35;99232.84;5111633;28;20050;-73
2022/04/16 08:01:31;;;;;;;11.85;5.63;;;;;;;18.89;39.54;99238.91;5111957;28;20019;-72
2022/04/16 08:03:56;;;;;;;17.60;5.18;;;;;;;19.02;38.82;99234.56;5111342;28;20031;-72
2022/04/16 08:06:22;;;;;;;16.15;6.72;;;;;;;19.14;38.71;99238.25;5111181;28;20093;-73
2022/04/16 08:08:47;;;;;;;14.85;6.63;;;;;;;19.01;37.25;99232.09;5111368;28;20059;-73
2022/04/16 08:11:13;;;;;;;9.73;4.95;;;;;;;19.15;37.85;99234.97;5092972;28;20019;-73
2022/04/16 08:13:39;;;;;;;9.35;5.53;;;;;;;19.32;38.75;99229.78;5093195;28;20138;-74
2022/04/16 08:16:05;;;;;;;13.55;5.32;;;;;;;19.55;37.03;99218.09;5107248;28;20039;-73
2022/04/16 08:18:31;;;;;;;20.05;5.38;;;;;;;19.71;36.11;99223.38;5108269;28;20019;-73
2022/04/16 08:20:58;;;;;;;20.33;6.28;;;;;;;19.79;36.18;99215.69;5111848;28;20472;-73
2022/04/16 08:23:24;;;;;;;13.65;4.57;;;;;;;19.61;35.68;99221.34;5093895;28;20501;-73
2022/04/16 08:25:49;;;;;;;14.65;4.57;;;;;;;19.86;35.31;99215.69;5111942;28;20030;-75
2022/04/16 08:28:15;;;;;;;13.73;6.30;;;;;;;19.76;34.75;99208.78;5093422;28;20020;-73
2022/04/16 08:30:40;;;;;;;11.07;5.45;;;;;;;19.15;34.95;99220.81;5111802;28;20775;-73
2022/04/16 08:33:12;;;;;;;11.43;5.22;;;;;;;19.43;34.60;99205.13;5111151;28;20478;-70
2022/04/16 08:35:37;;;;;;;8.90;4.70;;;;;;;19.67;34.44;99210.41;5107294;27;20028;-71
2022/04/16 08:38:03;;;;;;;35.15;5.60;;;;;;;19.45;34.52;99208.34;5084489;28;20076;-70
2022/04/16 08:40:28;;;;;;;16.35;5.68;;;;;;;19.89;35.60;99197.84;5108548;28;20061;-70
2022/04/16 08:42:55;;;;;;;9.52;5.15;;;;;;;20.34;34.34;99200.25;5075064;28;20024;-70
2022/04/16 08:45:21;;;;;;;15.48;5.07;;;;;;;20.52;33.57;99193.75;5105770;28;20122;-70
2022/04/16 08:47:49;;;;;;;17.30;5.32;;;;;;;20.70;33.62;99188.00;5110139;28;20023;-70
2022/04/16 08:50:14;;;;;;;10.32;5.07;;;;;;;20.97;33.61;99186.69;5112740;28;20038;-70
2022/04/16 08:52:41;;;;;;;11.48;5.10;;;;;;;21.25;32.47;99182.91;5088717;28;20024;-71
2022/04/16 08:55:10;;;;;;;12.07;5.28;;;;;;;21.48;32.15;99177.88;5102442;28;20036;-70
2022/04/16 08:57:35;;;;;;;10.82;5.03;;;;;;;21.78;31.93;99179.31;5085595;28;20044;-70
2022/04/16 09:00:01;;;;;;;477.02;41.28;;;;;;;21.60;30.50;99174.56;5093305;28;20426;-73
2022/04/16 09:02:28;;;;;;;22.88;5.90;;;;;;;21.77;29.60;99177.69;5112674;28;20034;-72
2022/04/16 09:05:07;;;;;;;16.17;5.22;;;;;;;21.78;30.78;99174.44;5112557;28;20533;-72
2022/04/16 09:07:44;;;;;;;7.15;4.47;;;;;;;21.79;31.37;99163.84;5112404;28;20398;-72
2022/04/16 09:10:10;;;;;;;9.57;5.68;;;;;;;21.72;30.42;99165.53;5111809;28;20031;-70
2022/04/16 09:12:38;;;;;;;13.80;5.40;;;;;;;21.76;30.99;99159.00;5112690;28;20047;-72
2022/04/16 09:15:11;;;;;;;8.02;5.53;;;;;;;21.79;31.14;99152.47;5106554;28;20401;-73
2022/04/16 09:17:37;;;;;;;10.85;5.07;;;;;;;22.22;30.35;99154.91;5105499;28;20075;-73
2022/04/16 09:20:14;;;;;;;77.85;9.45;;;;;;;22.49;30.04;99145.69;5091815;28;20078;-73
2022/04/16 09:22:48;;;;;;;15.05;5.03;;;;;;;22.69;28.62;99156.47;5109477;28;20170;-72
2022/04/16 09:25:16;;;;;;;9.18;3.85;;;;;;;22.78;28.28;99153.09;5091537;28;20070;-73
2022/04/16 09:27:47;;;;;;;9.63;4.22;;;;;;;22.71;28.71;99149.09;5108426;28;20105;-73
2022/04/16 09:30:21;;;;;;;8.10;4.65;;;;;;;22.42;28.75;99140.84;5091317;28;20070;-74
2022/04/16 09:32:46;;;;;;;12.20;5.65;;;;;;;22.40;29.60;99142.50;5109887;28;20031;-74
2022/04/16 09:35:25;;;;;;;7.90;4.38;;;;;;;22.76;29.54;99139.25;5090868;28;20035;-69
2022/04/16 09:37:59;;;;;;;9.43;4.72;;;;;;;22.47;27.59;99133.91;5110004;28;20042;-71
2022/04/16 09:40:29;;;;;;;9.70;4.00;;;;;;;22.60;27.25;99136.22;5108135;28;20044;-71
2022/04/16 09:42:57;;;;;;;12.55;4.95;;;;;;;22.66;27.54;99129.63;5091613;28;20070;-71
2022/04/16 09:45:23;;;;;;;8.57;4.53;;;;;;;23.03;28.03;99121.38;5109441;28;20053;-70
2022/04/16 09:47:50;;;;;;;13.02;4.10;;;;;;;23.32;25.47;99128.75;5091070;28;20035;-70
2022/04/16 09:50:21;;;;;;;7.25;3.58;;;;;;;23.62;26.47;99113.56;5109304;28;20477;-69
2022/04/16 09:52:53;;;;;;;12.82;5.05;;;;;;;23.28;25.59;99123.09;5109611;28;20520;-71
2022/04/16 09:55:21;;;;;;;9.82;4.88;;;;;;;23.38;24.79;99116.41;5110197;28;20023;-68
2022/04/16 09:57:51;;;;;;;12.55;4.03;;;;;;;23.75;25.00;99116.63;5109548;28;20121;-70
2022/04/16 10:00:18;;;;;;;7.97;4.25;;;;;;;23.81;25.08;99106.31;5109667;28;20074;-73
2022/04/16 10:02:44;;;;;;;7.45;4.13;;;;;;;23.93;24.21;99107.75;5089642;28;20036;-69
2022/04/16 10:05:11;;;;;;;18.55;5.38;;;;;;;24.03;24.26;99110.84;5098650;28;20022;-73
2022/04/16 10:07:37;;;;;;;11.57;4.50;;;;;;;24.20;25.66;99112.59;5106743;28;20028;-72
2022/04/16 10:10:17;;;;;;;13.93;5.30;;;;;;;24.61;25.33;99109.72;5111488;28;20023;-73
2022/04/16 10:13:00;;;;;;;16.02;4.50;;;;;;;24.30;23.02;99101.38;5093448;28;20031;-70
2022/04/16 10:15:35;;;;;;;11.02;4.07;;;;;;;24.52;22.35;99104.59;5111756;28;20030;-73
2022/04/16 10:18:02;;;;;;;5.10;3.67;;;;;;;24.74;21.57;99093.53;5093591;28;20076;-73
2022/04/16 10:20:28;;;;;;;6.00;3.60;;;;;;;24.79;21.77;99087.31;5111588;28;20028;-72
2022/04/16 10:22:55;;;;;;;99.10;64.57;;;;;;;23.80;23.43;99089.63;5111780;28;20027;-72
2022/04/16 10:25:31;;;;;;;10.55;7.03;;;;;;;24.38;23.08;99089.38;5091371;28;20107;-72
2022/04/16 10:28:03;;;;;;;29.50;11.27;;;;;;;24.00;23.11;99089.69;5091418;28;20028;-72
2022/04/16 10:30:51;;;;;;;9.07;6.85;;;;;;;24.39;23.27;99087.34;5101476;28;20070;-72
2022/04/16 10:33:25;;;;;;;5.10;4.07;;;;;;;24.87;21.71;99090.81;5111418;28;20032;-73
2022/04/16 10:35:58;;;;;;;13.70;10.88;;;;;;;24.75;23.57;99078.00;5109217;28;20024;-72
2022/04/16 10:38:37;;;;;;;11.82;5.00;;;;;;;25.14;24.88;99075.50;5083857;28;20401;-72
2022/04/16 10:41:10;;;;;;;15.27;4.90;;;;;;;25.53;24.38;99081.53;5092962;28;20037;-71
2022/04/16 10:43:36;;;;;;;11.30;4.38;;;;;;;25.53;23.47;99080.75;5111559;28;20057;-70
2022/04/16 10:46:07;;;;;;;8.18;3.40;;;;;;;25.50;21.62;99077.50;5111646;28;20032;-70
2022/04/16 10:48:38;;;;;;;7.05;5.88;;;;;;;25.48;22.94;99074.25;5111640;28;20023;-69
2022/04/16 10:51:08;;;;;;;10.40;3.70;;;;;;;25.88;22.18;99067.53;5111790;28;20038;-70
2022/04/16 10:53:35;;;;;;;4.95;4.05;;;;;;;26.10;21.89;99064.09;5091910;28;20048;-70
2022/04/16 10:56:12;;;;;;;5.00;3.78;;;;;;;26.38;22.91;99060.91;5104571;28;20412;-70
2022/04/16 10:58:45;;;;;;;10.70;3.85;;;;;;;26.53;22.42;99067.00;5110623;28;20455;-73
2022/04/16 11:01:13;;;;;;;5.75;3.83;;;;;;;26.52;21.67;99060.47;5104818;28;20066;-75
2022/04/16 11:03:48;;;;;;;6.30;4.20;;;;;;;26.06;22.82;99057.63;5091691;28;20024;-73
2022/04/16 11:06:14;;;;;;;22.55;5.38;;;;;;;25.60;21.78;99049.88;5113216;28;20023;-73
2022/04/16 11:08:41;;;;;;;13.35;4.53;;;;;;;25.41;22.47;99048.69;5106700;28;20020;-72
2022/04/16 11:11:08;;;;;;;18.88;4.22;;;;;;;25.93;22.55;99051.88;5097217;28;20028;-73
2022/04/16 11:13:36;;;;;;;5.97;4.35;;;;;;;25.22;21.41;99039.75;5085359;28;20502;-74
2022/04/16 11:16:01;;;;;;;5.00;3.72;;;;;;;26.00;22.01;99050.88;5112678;28;20108;-76
2022/04/16 11:18:44;;;;;;;10.65;4.25;;;;;;;25.38;22.57;99036.06;5093614;28;20490;-73
2022/04/16 11:21:10;;;;;;;11.88;5.05;;;;;;;26.01;22.54;99041.00;5106725;28;20035;-74
2022/04/16 11:23:50;;;;;;;10.63;4.00;;;;;;;26.10;23.02;99035.44;5096329;28;20015;-74
2022/04/16 11:34:34;;;;;;;5.43;4.10;;;;;;;26.26;21.80;99023.16;5114960;28;20038;-74
2022/04/16 11:37:00;;;;;;;14.40;3.88;;;;;;;25.90;21.25;99027.78;5086959;28;20027;-75
2022/04/16 11:39:28;;;;;;;3.63;3.00;;;;;;;25.74;20.94;99028.63;5075860;28;20016;-75
2022/04/16 11:41:58;;;;;;;7.10;3.45;;;;;;;25.55;21.40;99029.56;5093887;28;20020;-74
2022/04/16 11:44:44;;;;;;;8.73;4.72;;;;;;;25.41;20.67;99022.94;5094069;28;20463;-74